Time;durP1;ratioP1;P1;durP2;ratioP2;P2;SDS_P1;SDS_P2;PMS_P1;PMS_P2;Temp;Humidity;BMP_temperature;BMP_pressure;BME280_temperature;BME280_humidity;BME280_pressure;Samples;Min_cycle;Max_cycle;Signal;HPM_P1;HPM_P2
2021/01/17 00:00:36;;;;;;;14.90;9.00;;;;;;;;;;5045717;28;20239;-92
2021/01/17 00:03:03;;;;;;;14.27;8.15;;;;;;;;;;5040537;28;20200;-91
2021/01/17 00:05:30;;;;;;;19.00;12.50;;;;;;;;;;5041907;28;21065;-91
2021/01/17 00:07:57;;;;;;;19.85;12.55;;;;;;;;;;5040456;28;20202;-91
2021/01/17 00:10:24;;;;;;;23.23;13.57;;;;;;;;;;5043135;28;20235;-91
2021/01/17 00:12:51;;;;;;;15.65;8.20;;;;;;;;;;5042943;28;20202;-91
2021/01/17 00:15:17;;;;;;;12.48;6.70;;;;;;;;;;5040438;28;20205;-91
2021/01/17 00:17:44;;;;;;;10.18;7.32;;;;;;;;;;5042685;28;20213;-91
2021/01/17 00:20:11;;;;;;;19.50;8.55;;;;;;;;;;5038974;28;20238;-91
2021/01/17 00:22:37;;;;;;;11.65;7.18;;;;;;;;;;5043025;28;20200;-90
2021/01/17 00:25:03;;;;;;;11.68;6.85;;;;;;;;;;5041260;28;20216;-91
2021/01/17 00:27:29;;;;;;;12.45;6.65;;;;;;;;;;5044400;28;20201;-92
2021/01/17 00:29:56;;;;;;;14.83;9.17;;;;;;;;;;5044148;28;20214;-90
2021/01/17 00:32:22;;;;;;;16.17;9.57;;;;;;;;;;5044596;28;20479;-90
2021/01/17 00:34:48;;;;;;;15.63;9.60;;;;;;;;;;5053723;28;20201;-91
2021/01/17 00:37:14;;;;;;;17.40;8.53;;;;;;;;;;5045507;28;20464;-91
2021/01/17 00:39:40;;;;;;;13.02;7.45;;;;;;;;;;5044218;28;20450;-92
2021/01/17 00:42:08;;;;;;;15.43;8.75;;;;;;;;;;5039072;28;20212;-91
2021/01/17 00:44:34;;;;;;;17.92;9.15;;;;;;;;;;5043651;28;20205;-90
2021/01/17 00:47:01;;;;;;;12.38;7.18;;;;;;;;;;5040283;28;20262;-91
2021/01/17 00:49:27;;;;;;;14.95;6.70;;;;;;;;;;5043705;28;20362;-90
2021/01/17 00:51:53;;;;;;;15.30;7.38;;;;;;;;;;5041115;28;20585;-92
2021/01/17 00:54:19;;;;;;;11.10;6.93;;;;;;;;;;5039072;28;20211;-91
2021/01/17 00:56:45;;;;;;;14.02;6.38;;;;;;;;;;5041336;28;20210;-90
2021/01/17 00:59:11;;;;;;;14.68;8.02;;;;;;;;;;5037954;28;20211;-91
2021/01/17 01:01:38;;;;;;;13.48;6.85;;;;;;;;;;5042720;28;20235;-91
2021/01/17 01:04:05;;;;;;;12.63;7.28;;;;;;;;;;5038970;28;20200;-92
2021/01/17 01:06:31;;;;;;;12.55;7.57;;;;;;;;;;5036614;28;20202;-91
2021/01/17 01:08:57;;;;;;;14.90;7.38;;;;;;;;;;5044760;28;20218;-90
2021/01/17 01:11:23;;;;;;;13.13;8.27;;;;;;;;;;5038632;28;20245;-91
2021/01/17 01:13:49;;;;;;;16.42;8.35;;;;;;;;;;5044421;28;20250;-91
2021/01/17 01:16:15;;;;;;;18.23;11.13;;;;;;;;;;5039647;28;20205;-90
2021/01/17 01:18:42;;;;;;;17.02;11.52;;;;;;;;;;5042582;28;20215;-91
2021/01/17 01:21:09;;;;;;;13.77;7.63;;;;;;;;;;5038123;28;20234;-91
2021/01/17 01:23:35;;;;;;;16.98;9.68;;;;;;;;;;5038373;28;20212;-90
2021/01/17 01:26:01;;;;;;;25.38;14.77;;;;;;;;;;5033961;28;20201;-92
2021/01/17 01:28:27;;;;;;;33.03;21.77;;;;;;;;;;5039240;28;20209;-91
2021/01/17 01:30:53;;;;;;;21.73;12.55;;;;;;;;;;5043112;28;20237;-91
2021/01/17 01:33:19;;;;;;;17.58;9.63;;;;;;;;;;5037089;28;20661;-91
2021/01/17 01:35:46;;;;;;;11.77;7.05;;;;;;;;;;5035531;28;20203;-91
2021/01/17 01:38:12;;;;;;;13.00;7.88;;;;;;;;;;5038347;28;20210;-91
2021/01/17 01:40:38;;;;;;;13.95;7.57;;;;;;;;;;5042776;28;20232;-91
2021/01/17 01:43:04;;;;;;;12.40;7.10;;;;;;;;;;5039085;28;20208;-93
2021/01/17 01:45:30;;;;;;;10.80;6.65;;;;;;;;;;5038070;28;20206;-91
2021/01/17 01:47:57;;;;;;;9.73;5.97;;;;;;;;;;5041460;28;20261;-91
2021/01/17 01:50:23;;;;;;;22.13;9.02;;;;;;;;;;5039383;28;20210;-91
2021/01/17 01:52:49;;;;;;;14.35;7.47;;;;;;;;;;5040994;28;20203;-91
2021/01/17 01:55:16;;;;;;;13.48;6.43;;;;;;;;;;5036523;28;20220;-91
2021/01/17 01:57:42;;;;;;;14.70;6.93;;;;;;;;;;5041293;28;20204;-91
2021/01/17 02:00:09;;;;;;;14.05;7.90;;;;;;;;;;5040017;28;20822;-91
2021/01/17 02:02:40;;;;;;;11.82;6.05;;;;;;;;;;5042448;28;20204;-90
2021/01/17 02:05:07;;;;;;;10.15;6.20;;;;;;;;;;5037021;28;20232;-92
2021/01/17 02:07:47;;;;;;;11.30;6.55;;;;;;;;;;5040664;28;20208;-92
2021/01/17 02:10:13;;;;;;;11.02;6.00;;;;;;;;;;5038037;28;20205;-92
2021/01/17 02:12:43;;;;;;;14.85;7.38;;;;;;;;;;5039947;28;20205;-91
2021/01/17 02:15:13;;;;;;;11.73;6.90;;;;;;;;;;5040762;28;20203;-91
2021/01/17 02:17:39;;;;;;;10.98;6.50;;;;;;;;;;5039839;28;20205;-91
2021/01/17 02:20:08;;;;;;;13.38;7.05;;;;;;;;;;5041649;28;20672;-92
2021/01/17 02:22:36;;;;;;;14.73;7.30;;;;;;;;;;5038916;28;20680;-92
2021/01/17 02:25:05;;;;;;;14.23;8.70;;;;;;;;;;5040663;28;20202;-91
2021/01/17 02:27:31;;;;;;;14.05;6.95;;;;;;;;;;5038285;28;20206;-91
2021/01/17 02:29:58;;;;;;;13.02;7.03;;;;;;;;;;5039190;28;20199;-90
2021/01/17 02:32:28;;;;;;;13.82;7.75;;;;;;;;;;5041274;28;20213;-91
2021/01/17 02:34:54;;;;;;;10.90;7.20;;;;;;;;;;5039282;28;20219;-92
2021/01/17 02:37:24;;;;;;;12.07;7.60;;;;;;;;;;5040934;28;20201;-91
2021/01/17 02:39:53;;;;;;;12.57;7.75;;;;;;;;;;5037913;28;20587;-90
2021/01/17 02:42:20;;;;;;;15.98;8.88;;;;;;;;;;5040631;28;20204;-91
2021/01/17 02:44:47;;;;;;;15.75;8.18;;;;;;;;;;5038223;28;20591;-91
2021/01/17 02:47:13;;;;;;;13.35;7.97;;;;;;;;;;5041492;28;20238;-92
2021/01/17 02:49:39;;;;;;;16.55;7.80;;;;;;;;;;5038444;28;20217;-91
2021/01/17 02:52:06;;;;;;;22.15;10.73;;;;;;;;;;5041568;28;20204;-91
2021/01/17 02:54:33;;;;;;;14.95;8.05;;;;;;;;;;5039175;28;20203;-91
2021/01/17 02:57:02;;;;;;;14.75;8.63;;;;;;;;;;5041056;28;20218;-91
2021/01/17 02:59:33;;;;;;;13.73;6.97;;;;;;;;;;5038388;28;20198;-90
2021/01/17 03:02:00;;;;;;;15.25;8.30;;;;;;;;;;5034612;28;20712;-91
2021/01/17 03:04:31;;;;;;;16.10;9.25;;;;;;;;;;5041859;28;20815;-90
2021/01/17 03:06:59;;;;;;;13.80;8.75;;;;;;;;;;5039495;28;20197;-91
2021/01/17 03:09:28;;;;;;;16.15;9.00;;;;;;;;;;5041691;28;20209;-91
2021/01/17 03:11:54;;;;;;;13.65;6.22;;;;;;;;;;5038787;28;20211;-90
2021/01/17 03:14:20;;;;;;;13.43;8.98;;;;;;;;;;5041876;28;20204;-91
2021/01/17 03:16:47;;;;;;;15.75;7.75;;;;;;;;;;5045436;28;20207;-90
2021/01/17 03:19:13;;;;;;;14.50;7.68;;;;;;;;;;5047979;28;20255;-91
2021/01/17 03:21:39;;;;;;;15.32;8.07;;;;;;;;;;5045639;28;20226;-90
2021/01/17 03:24:06;;;;;;;12.50;7.25;;;;;;;;;;5043575;28;20208;-90
2021/01/17 03:26:32;;;;;;;17.02;8.82;;;;;;;;;;5054851;28;20189;-91
2021/01/17 03:28:58;;;;;;;14.87;6.70;;;;;;;;;;5046915;28;20236;-91
2021/01/17 03:31:24;;;;;;;15.18;7.43;;;;;;;;;;5042562;28;20478;-90
2021/01/17 03:33:51;;;;;;;12.97;7.13;;;;;;;;;;5036906;28;20212;-91
2021/01/17 03:36:17;;;;;;;15.52;7.57;;;;;;;;;;5040535;28;20465;-90
2021/01/17 03:38:43;;;;;;;6.57;3.97;;;;;;;;;;5037672;28;20211;-89
2021/01/17 03:41:10;;;;;;;12.93;7.13;;;;;;;;;;5040371;28;20230;-90
2021/01/17 03:43:36;;;;;;;16.38;8.00;;;;;;;;;;5042542;28;20452;-91
2021/01/17 03:46:02;;;;;;;14.30;7.00;;;;;;;;;;5039978;28;20242;-90
2021/01/17 03:48:28;;;;;;;13.18;6.35;;;;;;;;;;5043167;28;20214;-90
2021/01/17 03:50:56;;;;;;;15.73;7.82;;;;;;;;;;5039851;28;20210;-90
2021/01/17 03:53:22;;;;;;;16.90;8.35;;;;;;;;;;5043603;28;20202;-90
2021/01/17 03:55:48;;;;;;;14.20;7.17;;;;;;;;;;5041324;28;20228;-90
2021/01/17 03:58:14;;;;;;;15.40;8.10;;;;;;;;;;5043065;28;20473;-90
2021/01/17 04:00:40;;;;;;;18.75;8.63;;;;;;;;;;5040939;28;20224;-91
2021/01/17 04:03:06;;;;;;;15.88;7.97;;;;;;;;;;5035096;28;20207;-90
2021/01/17 04:05:32;;;;;;;16.55;8.65;;;;;;;;;;5041872;28;20258;-90
2021/01/17 04:07:59;;;;;;;14.07;7.03;;;;;;;;;;5043018;28;20220;-91
2021/01/17 04:10:25;;;;;;;14.13;8.63;;;;;;;;;;5044272;28;20463;-91
2021/01/17 04:12:51;;;;;;;11.93;7.43;;;;;;;;;;5040755;28;20219;-89
2021/01/17 04:15:17;;;;;;;17.77;9.60;;;;;;;;;;5044140;28;20443;-90
2021/01/17 04:17:47;;;;;;;17.73;7.70;;;;;;;;;;5039252;28;20468;-91
2021/01/17 04:20:13;;;;;;;12.90;8.18;;;;;;;;;;5042283;28;20205;-91
2021/01/17 04:22:39;;;;;;;17.33;7.80;;;;;;;;;;5040890;28;20438;-91
2021/01/17 04:25:07;;;;;;;19.08;8.65;;;;;;;;;;5042908;28;20260;-89
2021/01/17 04:27:33;;;;;;;13.68;8.00;;;;;;;;;;5042777;28;20211;-90
2021/01/17 04:29:59;;;;;;;23.08;8.80;;;;;;;;;;5040502;28;20206;-90
2021/01/17 04:32:25;;;;;;;15.02;8.90;;;;;;;;;;5044230;28;20197;-90
2021/01/17 04:34:52;;;;;;;14.70;7.53;;;;;;;;;;5040649;28;20208;-90
2021/01/17 04:37:20;;;;;;;15.05;8.55;;;;;;;;;;5044046;28;20284;-91
2021/01/17 04:39:46;;;;;;;14.98;9.18;;;;;;;;;;5038691;28;20202;-90
2021/01/17 04:42:13;;;;;;;15.90;9.13;;;;;;;;;;5042013;28;20238;-90
2021/01/17 04:44:39;;;;;;;13.38;8.77;;;;;;;;;;5039584;28;20462;-90
2021/01/17 04:47:06;;;;;;;16.23;8.95;;;;;;;;;;5042620;28;20251;-91
2021/01/17 04:49:36;;;;;;;16.98;8.15;;;;;;;;;;5042041;28;20764;-90
2021/01/17 04:52:03;;;;;;;18.35;8.90;;;;;;;;;;5040092;28;20228;-90
2021/01/17 04:54:29;;;;;;;16.38;8.65;;;;;;;;;;5044053;28;20235;-90
2021/01/17 04:57:00;;;;;;;20.88;9.35;;;;;;;;;;5040878;28;20197;-91
2021/01/17 04:59:30;;;;;;;16.17;9.57;;;;;;;;;;5042688;28;20209;-90
2021/01/17 05:02:03;;;;;;;17.42;9.32;;;;;;;;;;5039161;28;20225;-90
2021/01/17 05:04:53;;;;;;;20.08;10.20;;;;;;;;;;5043115;28;20216;-91
2021/01/17 05:07:22;;;;;;;22.70;9.93;;;;;;;;;;5040275;28;20216;-91
2021/01/17 05:09:53;;;;;;;15.88;8.43;;;;;;;;;;5033050;28;20205;-91
2021/01/17 05:12:20;;;;;;;20.10;9.00;;;;;;;;;;5032911;28;23862;-89
2021/01/17 05:14:53;;;;;;;14.70;7.60;;;;;;;;;;5041990;28;20208;-89
2021/01/17 05:17:20;;;;;;;16.50;8.32;;;;;;;;;;5042435;28;20209;-90
2021/01/17 05:19:47;;;;;;;15.32;8.20;;;;;;;;;;5040644;28;20220;-90
2021/01/17 05:22:14;;;;;;;13.95;7.70;;;;;;;;;;5043426;28;20258;-91
2021/01/17 05:24:42;;;;;;;16.85;8.55;;;;;;;;;;5039860;28;20205;-92
2021/01/17 05:27:08;;;;;;;20.13;7.80;;;;;;;;;;5043288;28;20212;-91
2021/01/17 05:29:34;;;;;;;17.50;8.45;;;;;;;;;;5040814;28;20203;-90
2021/01/17 05:32:02;;;;;;;15.10;8.02;;;;;;;;;;5043809;28;20210;-91
2021/01/17 05:34:28;;;;;;;15.80;8.40;;;;;;;;;;5040579;28;20212;-91
2021/01/17 05:37:02;;;;;;;12.93;7.75;;;;;;;;;;5042360;28;20202;-91
2021/01/17 05:39:28;;;;;;;12.20;6.88;;;;;;;;;;5033664;28;20231;-91
2021/01/17 05:41:54;;;;;;;13.10;6.43;;;;;;;;;;5040250;28;20715;-90
2021/01/17 05:44:29;;;;;;;13.45;7.28;;;;;;;;;;5042257;28;20463;-91
2021/01/17 05:47:01;;;;;;;14.15;7.65;;;;;;;;;;5038786;28;20231;-91
2021/01/17 05:49:27;;;;;;;16.77;7.70;;;;;;;;;;5042025;28;20200;-91
2021/01/17 05:51:54;;;;;;;16.35;8.95;;;;;;;;;;5040164;28;20212;-91
2021/01/17 05:54:24;;;;;;;18.63;7.80;;;;;;;;;;5041092;28;20199;-91
2021/01/17 05:56:51;;;;;;;13.70;7.50;;;;;;;;;;5037979;28;20216;-91
2021/01/17 05:59:17;;;;;;;14.63;8.40;;;;;;;;;;5042544;28;20212;-91
2021/01/17 06:01:43;;;;;;;17.37;9.77;;;;;;;;;;5041230;28;20231;-91
2021/01/17 06:04:12;;;;;;;15.55;8.60;;;;;;;;;;5041186;28;20443;-91
2021/01/17 06:06:39;;;;;;;14.50;7.20;;;;;;;;;;5040810;28;20284;-91
2021/01/17 06:09:05;;;;;;;16.20;8.75;;;;;;;;;;5039523;28;20208;-91
2021/01/17 06:11:31;;;;;;;18.55;10.20;;;;;;;;;;5043161;28;20204;-91
2021/01/17 06:13:58;;;;;;;19.40;9.98;;;;;;;;;;5039436;28;20204;-91
2021/01/17 06:16:26;;;;;;;22.80;10.88;;;;;;;;;;5043850;28;20207;-92
2021/01/17 06:18:55;;;;;;;14.70;9.10;;;;;;;;;;5042937;28;20204;-91
2021/01/17 06:21:23;;;;;;;18.80;10.18;;;;;;;;;;5051234;28;20219;-91
2021/01/17 06:23:54;;;;;;;23.65;11.93;;;;;;;;;;5047146;28;20201;-91
2021/01/17 06:26:23;;;;;;;20.77;10.63;;;;;;;;;;5038595;28;20204;-90
2021/01/17 06:28:49;;;;;;;18.83;10.27;;;;;;;;;;5041948;28;20209;-90
2021/01/17 06:31:20;;;;;;;21.73;11.00;;;;;;;;;;5037564;28;20205;-91
2021/01/17 06:33:48;;;;;;;24.40;11.60;;;;;;;;;;5041776;28;20223;-91
2021/01/17 06:36:14;;;;;;;18.58;10.68;;;;;;;;;;5038069;28;20212;-91
2021/01/17 06:38:41;;;;;;;27.75;12.50;;;;;;;;;;5041934;28;20202;-91
2021/01/17 06:41:07;;;;;;;22.92;12.63;;;;;;;;;;5038433;28;20263;-91
2021/01/17 06:43:38;;;;;;;25.98;12.75;;;;;;;;;;5040634;28;20240;-91
2021/01/17 06:46:04;;;;;;;29.95;15.18;;;;;;;;;;5039210;28;20236;-91
2021/01/17 06:48:30;;;;;;;23.90;12.02;;;;;;;;;;5034317;28;20204;-91
2021/01/17 06:51:15;;;;;;;25.88;13.35;;;;;;;;;;5040120;28;20215;-90
2021/01/17 06:53:50;;;;;;;24.90;11.02;;;;;;;;;;5034962;28;20200;-89
2021/01/17 06:56:16;;;;;;;21.30;10.80;;;;;;;;;;5040500;28;20206;-90
2021/01/17 06:58:45;;;;;;;19.63;9.55;;;;;;;;;;5037736;28;20266;-90
2021/01/17 07:01:10;;;;;;;21.98;11.65;;;;;;;;;;5041806;28;20239;-89
2021/01/17 07:03:39;;;;;;;22.50;10.68;;;;;;;;;;5040141;28;20205;-89
2021/01/17 07:06:16;;;;;;;21.83;11.93;;;;;;;;;;5040760;28;20237;-89
2021/01/17 07:08:50;;;;;;;32.53;15.10;;;;;;;;;;5042243;28;20208;-90
2021/01/17 07:11:31;;;;;;;26.02;12.50;;;;;;;;;;5038543;28;20235;-90
2021/01/17 07:14:01;;;;;;;20.05;11.43;;;;;;;;;;5039472;28;20233;-89
2021/01/17 07:16:31;;;;;;;22.48;10.50;;;;;;;;;;5036958;28;20227;-90
2021/01/17 07:19:00;;;;;;;30.67;14.18;;;;;;;;;;5041467;28;20211;-90
2021/01/17 07:21:27;;;;;;;21.30;9.82;;;;;;;;;;5036444;28;20229;-91
2021/01/17 07:23:56;;;;;;;26.75;12.57;;;;;;;;;;5041707;28;20566;-91
2021/01/17 07:26:26;;;;;;;18.27;10.30;;;;;;;;;;5037596;28;20208;-92
2021/01/17 07:28:52;;;;;;;18.42;9.63;;;;;;;;;;5040511;28;20200;-92
2021/01/17 07:31:19;;;;;;;24.15;10.90;;;;;;;;;;5038625;28;20245;-92
2021/01/17 07:33:46;;;;;;;17.85;10.13;;;;;;;;;;5038582;28;20224;-90
2021/01/17 07:36:12;;;;;;;25.52;10.70;;;;;;;;;;5032646;28;20206;-90
2021/01/17 07:38:41;;;;;;;21.05;9.90;;;;;;;;;;5034249;28;20207;-92
2021/01/17 07:41:09;;;;;;;17.35;9.60;;;;;;;;;;5042507;28;20285;-92
2021/01/17 07:43:37;;;;;;;19.98;9.60;;;;;;;;;;5037949;28;20205;-92
2021/01/17 07:46:04;;;;;;;18.67;9.18;;;;;;;;;;5040665;28;20228;-93
2021/01/17 07:48:30;;;;;;;20.33;9.60;;;;;;;;;;5037320;28;20200;-92
2021/01/17 07:50:57;;;;;;;18.77;9.68;;;;;;;;;;5033899;28;20198;-92
2021/01/17 07:53:43;;;;;;;17.35;9.65;;;;;;;;;;5036284;28;20922;-92
2021/01/17 07:56:11;;;;;;;17.55;9.38;;;;;;;;;;5035410;28;20205;-92
2021/01/17 07:58:38;;;;;;;18.70;9.48;;;;;;;;;;5034438;28;20201;-91
2021/01/17 08:01:04;;;;;;;20.10;9.20;;;;;;;;;;5038143;28;20238;-92
2021/01/17 08:03:30;;;;;;;17.90;9.98;;;;;;;;;;5042414;28;20751;-92
2021/01/17 08:05:56;;;;;;;17.85;9.82;;;;;;;;;;5039418;28;20236;-93
2021/01/17 08:08:44;;;;;;;13.98;9.85;;;;;;;;;;5041527;28;20204;-92
2021/01/17 08:11:31;;;;;;;20.63;9.73;;;;;;;;;;5040438;28;20239;-92
2021/01/17 08:13:57;;;;;;;16.08;9.98;;;;;;;;;;5037236;28;20230;-92
2021/01/17 08:16:23;;;;;;;16.90;10.00;;;;;;;;;;5039445;28;20812;-92
2021/01/17 08:18:49;;;;;;;20.25;9.95;;;;;;;;;;5045827;28;20196;-90
2021/01/17 08:21:24;;;;;;;18.88;9.77;;;;;;;;;;5042248;28;20239;-91
2021/01/17 08:24:17;;;;;;;17.85;10.23;;;;;;;;;;5036540;28;20199;-90
2021/01/17 08:27:00;;;;;;;20.30;10.02;;;;;;;;;;5043935;28;20208;-92
2021/01/17 08:29:26;;;;;;;18.50;10.45;;;;;;;;;;5049196;28;20204;-91
2021/01/17 08:31:52;;;;;;;16.42;10.05;;;;;;;;;;5041497;28;20222;-91
2021/01/17 08:34:24;;;;;;;20.10;10.57;;;;;;;;;;5040251;28;20208;-92
2021/01/17 08:36:51;;;;;;;19.27;10.70;;;;;;;;;;5042077;28;20200;-93
2021/01/17 08:39:32;;;;;;;23.00;11.70;;;;;;;;;;5040702;28;20200;-93
2021/01/17 08:41:58;;;;;;;24.42;12.05;;;;;;;;;;5044422;28;20227;-92
2021/01/17 08:44:32;;;;;;;19.52;10.65;;;;;;;;;;5038930;28;20212;-92
2021/01/17 08:46:58;;;;;;;19.38;10.68;;;;;;;;;;5041575;28;20235;-92
2021/01/17 08:49:36;;;;;;;24.00;12.98;;;;;;;;;;5040725;28;20206;-93
2021/01/17 08:52:02;;;;;;;22.20;12.30;;;;;;;;;;5043153;28;20203;-94
2021/01/17 08:54:29;;;;;;;23.17;12.55;;;;;;;;;;5043691;28;20212;-94
2021/01/17 08:56:55;;;;;;;26.60;12.90;;;;;;;;;;5044474;28;20238;-93
2021/01/17 08:59:37;;;;;;;26.27;13.95;;;;;;;;;;5053064;28;20176;-91
2021/01/17 09:02:04;;;;;;;22.67;12.57;;;;;;;;;;5044245;28;20227;-94
2021/01/17 09:04:30;;;;;;;19.25;10.60;;;;;;;;;;5044860;28;20208;-92
2021/01/17 09:06:57;;;;;;;12.88;8.38;;;;;;;;;;5036697;28;20521;-95
2021/01/17 09:09:23;;;;;;;12.15;7.60;;;;;;;;;;5042241;28;20222;-93
2021/01/17 09:11:50;;;;;;;13.00;7.75;;;;;;;;;;5039974;28;20204;-95
2021/01/17 09:14:21;;;;;;;10.73;5.97;;;;;;;;;;5042689;28;20200;-95
2021/01/17 09:16:49;;;;;;;12.98;6.85;;;;;;;;;;5039197;28;20212;-91
2021/01/17 09:19:16;;;;;;;13.73;9.10;;;;;;;;;;5040518;28;20212;-91
2021/01/17 09:21:42;;;;;;;9.00;5.95;;;;;;;;;;5037838;28;20224;-92
2021/01/17 09:24:11;;;;;;;11.82;8.00;;;;;;;;;;5039899;28;20694;-92
2021/01/17 09:26:39;;;;;;;12.27;6.97;;;;;;;;;;5041884;28;20200;-92
2021/01/17 09:29:05;;;;;;;11.38;7.30;;;;;;;;;;5041973;28;20229;-94
2021/01/17 09:31:31;;;;;;;11.43;5.93;;;;;;;;;;5046603;28;20231;-93
2021/01/17 09:33:58;;;;;;;11.18;7.22;;;;;;;;;;5042488;28;20206;-92
2021/01/17 09:36:25;;;;;;;12.23;6.20;;;;;;;;;;5032285;28;20204;-93
2021/01/17 09:38:51;;;;;;;13.85;7.18;;;;;;;;;;5039506;28;20208;-93
2021/01/17 09:41:24;;;;;;;10.05;5.85;;;;;;;;;;5042480;28;20227;-93
2021/01/17 09:43:51;;;;;;;10.10;6.28;;;;;;;;;;5038796;28;20211;-92
2021/01/17 09:46:21;;;;;;;12.45;7.10;;;;;;;;;;5041172;28;20232;-95
2021/01/17 09:48:55;;;;;;;10.63;6.95;;;;;;;;;;5042507;28;20204;-94
2021/01/17 09:51:22;;;;;;;7.55;4.93;;;;;;;;;;5040591;28;20204;-95
2021/01/17 09:53:48;;;;;;;8.27;5.82;;;;;;;;;;5047482;28;20207;-93
2021/01/17 09:56:15;;;;;;;8.88;4.57;;;;;;;;;;5042110;28;20215;-96
2021/01/17 09:58:41;;;;;;;9.48;5.68;;;;;;;;;;5027343;28;20208;-91
2021/01/17 10:01:07;;;;;;;10.02;5.95;;;;;;;;;;5044360;28;20263;-96
2021/01/17 10:03:34;;;;;;;13.40;6.10;;;;;;;;;;5047332;28;20246;-91
2021/01/17 10:06:00;;;;;;;12.00;6.47;;;;;;;;;;5042265;28;20210;-93
2021/01/17 10:08:28;;;;;;;8.50;4.78;;;;;;;;;;5042533;28;20589;-93
2021/01/17 10:13:36;;;;;;;9.85;6.03;;;;;;;;;;5000884;23;20245;-94
2021/01/17 10:16:04;;;;;;;11.73;8.32;;;;;;;;;;5055064;23;20260;-93
2021/01/17 10:18:30;;;;;;;9.10;5.50;;;;;;;;;;5031619;28;20200;-92
2021/01/17 10:20:57;;;;;;;12.82;6.85;;;;;;;;;;5026496;28;20279;-95
2021/01/17 10:23:33;;;;;;;12.57;6.45;;;;;;;;;;5032490;28;20220;-91
2021/01/17 10:25:59;;;;;;;10.27;5.90;;;;;;;;;;5025909;28;20268;-96
2021/01/17 10:28:47;;;;;;;8.25;5.40;;;;;;;;;;5047326;28;20184;-95
2021/01/17 10:31:15;;;;;;;7.68;4.43;;;;;;;;;;5055305;23;20239;-92
2021/01/17 10:33:43;;;;;;;7.50;5.32;;;;;;;;;;5051231;28;20184;-96
2021/01/17 10:39:14;;;;;;;9.93;5.97;;;;;;;;;;5015292;26;20239;-95
2021/01/17 10:41:41;;;;;;;11.50;6.15;;;;;;;;;;5003784;28;20221;-93
2021/01/17 10:44:11;;;;;;;9.05;5.53;;;;;;;;;;5006282;28;20196;-95
2021/01/17 10:46:38;;;;;;;11.55;4.45;;;;;;;;;;5019125;23;20228;-94
2021/01/17 10:49:08;;;;;;;9.05;5.68;;;;;;;;;;5023553;28;20200;-93
2021/01/17 10:51:37;;;;;;;12.23;6.40;;;;;;;;;;5020885;28;20208;-94
2021/01/17 10:54:15;;;;;;;11.25;5.80;;;;;;;;;;5024231;28;20204;-95
2021/01/17 10:56:44;;;;;;;9.60;6.03;;;;;;;;;;5030525;28;20710;-96
2021/01/17 10:59:12;;;;;;;9.43;5.25;;;;;;;;;;5035176;28;20232;-94
2021/01/17 11:01:38;;;;;;;13.45;7.53;;;;;;;;;;5030525;28;20204;-92
2021/01/17 11:06:57;;;;;;;13.48;6.28;;;;;;;;;;5133411;23;20292;-94
2021/01/17 11:09:25;;;;;;;11.70;5.90;;;;;;;;;;4968913;28;20737;-96
2021/01/17 11:11:52;;;;;;;8.40;5.57;;;;;;;;;;4985640;28;20206;-93
2021/01/17 11:14:40;;;;;;;11.10;5.65;;;;;;;;;;4972660;28;20199;-95
2021/01/17 11:17:07;;;;;;;9.40;5.65;;;;;;;;;;4985862;28;20194;-91
2021/01/17 11:19:47;;;;;;;9.02;5.78;;;;;;;;;;4973661;28;20206;-96
2021/01/17 11:22:24;;;;;;;9.55;5.57;;;;;;;;;;5037515;23;20221;-95
2021/01/17 11:24:53;;;;;;;14.23;7.47;;;;;;;;;;5005355;28;20185;-95
2021/01/17 11:30:25;;;;;;;7.25;5.05;;;;;;;;;;4996707;28;20225;-96
2021/01/17 11:41:22;;;;;;;9.43;6.55;;;;;;;;;;5090904;23;20484;-96
2021/01/17 11:43:50;;;;;;;10.95;6.22;;;;;;;;;;5011973;28;20197;-94
2021/01/17 11:46:37;;;;;;;8.48;5.68;;;;;;;;;;5020105;28;20252;-94
2021/01/17 11:49:03;;;;;;;9.30;5.45;;;;;;;;;;4996070;28;20236;-91
2021/01/17 12:00:02;;;;;;;8.63;5.43;;;;;;;;;;5781387;23;20212;-95
2021/01/17 12:05:51;;;;;;;7.82;4.88;;;;;;;;;;5962822;23;21422;31
2021/01/17 12:11:52;;;;;;;10.95;5.85;;;;;;;;;;4988554;23;20228;-93
2021/01/17 12:14:39;;;;;;;10.73;6.07;;;;;;;;;;5049804;23;20238;-96
2021/01/17 12:19:43;;;;;;;12.32;7.30;;;;;;;;;;5141301;23;20247;-94
2021/01/17 12:22:14;;;;;;;13.18;7.35;;;;;;;;;;5036484;28;20221;-97
2021/01/17 12:24:41;;;;;;;11.93;7.13;;;;;;;;;;5034803;28;20250;-95
2021/01/17 12:27:08;;;;;;;12.20;6.35;;;;;;;;;;5028826;28;20219;-95
2021/01/17 12:35:21;;;;;;;8.25;6.10;;;;;;;;;;5019306;28;20304;-96
2021/01/17 12:37:48;;;;;;;10.10;6.05;;;;;;;;;;5010486;28;20240;-96
2021/01/17 12:40:17;;;;;;;11.07;5.30;;;;;;;;;;5014154;28;20181;-96
2021/01/17 12:42:49;;;;;;;11.10;6.03;;;;;;;;;;5009191;28;20267;-96
2021/01/17 12:45:16;;;;;;;10.32;6.82;;;;;;;;;;5013876;28;20292;-94
2021/01/17 12:48:00;;;;;;;11.52;7.60;;;;;;;;;;5013683;28;20189;-96
2021/01/17 12:53:35;;;;;;;9.73;7.15;;;;;;;;;;5128261;23;20232;-94
2021/01/17 12:56:05;;;;;;;10.98;6.55;;;;;;;;;;5000797;28;20210;-96
2021/01/17 12:58:33;;;;;;;9.88;6.70;;;;;;;;;;5002427;28;20188;-96
2021/01/17 13:01:01;;;;;;;9.95;6.85;;;;;;;;;;5013910;28;20217;-96
2021/01/17 13:03:27;;;;;;;9.70;6.10;;;;;;;;;;5007890;28;20206;-96
2021/01/17 13:09:13;;;;;;;13.85;7.60;;;;;;;;;;5002195;28;20249;-96
2021/01/17 13:17:26;;;;;;;8.27;6.25;;;;;;;;;;5115370;23;20270;-96
2021/01/17 13:25:32;;;;;;;12.07;8.02;;;;;;;;;;5261029;23;20264;-96
2021/01/17 13:27:58;;;;;;;12.25;7.45;;;;;;;;;;4995155;28;20269;-95
2021/01/17 13:41:15;;;;;;;12.05;7.90;;;;;;;;;;5024277;23;20241;-94
2021/01/17 13:43:43;;;;;;;11.07;7.35;;;;;;;;;;5013508;28;20281;-95
2021/01/17 13:46:13;;;;;;;8.75;6.57;;;;;;;;;;5014046;28;20201;-96
2021/01/17 13:51:16;;;;;;;11.18;7.10;;;;;;;;;;5032640;23;20271;-93
2021/01/17 13:53:43;;;;;;;7.90;5.80;;;;;;;;;;5070434;23;20237;-96
2021/01/17 14:04:24;;;;;;;10.02;6.10;;;;;;;;;;4998729;28;20233;-96
2021/01/17 14:34:03;;;;;;;11.88;6.70;;;;;;;;;;5479574;22;20217;-94
2021/01/17 14:36:36;;;;;;;10.50;6.47;;;;;;;;;;5019565;28;20185;-92
2021/01/17 14:42:06;;;;;;;17.38;7.70;;;;;;;;;;5046318;23;20244;-96
2021/01/17 14:50:37;;;;;;;14.05;9.63;;;;;;;;;;5060256;23;20267;-94
2021/01/17 14:53:05;;;;;;;13.07;8.55;;;;;;;;;;5016225;28;20221;-96
2021/01/17 14:57:58;;;;;;;14.43;9.23;;;;;;;;;;5020735;23;20309;-96
2021/01/17 15:00:25;;;;;;;15.60;9.20;;;;;;;;;;5020675;23;20310;-96
2021/01/17 15:05:37;;;;;;;16.23;8.30;;;;;;;;;;522654;26;20475;-96
2021/01/17 15:08:05;;;;;;;19.02;9.18;;;;;;;;;;5022681;28;20212;-96
2021/01/17 15:10:31;;;;;;;17.60;8.90;;;;;;;;;;5025397;28;20216;-96
2021/01/17 15:12:58;;;;;;;17.33;9.95;;;;;;;;;;5034982;28;20205;-96
2021/01/17 15:15:24;;;;;;;14.48;8.00;;;;;;;;;;5032619;28;20196;-96
2021/01/17 15:17:51;;;;;;;21.83;10.48;;;;;;;;;;5034647;28;20201;-96
2021/01/17 15:20:17;;;;;;;19.98;8.27;;;;;;;;;;5026046;28;20200;-96
2021/01/17 15:22:43;;;;;;;14.82;8.80;;;;;;;;;;5026131;28;20235;-96
2021/01/17 15:25:13;;;;;;;12.90;8.05;;;;;;;;;;5028460;28;20204;-96
2021/01/17 15:27:39;;;;;;;13.52;8.18;;;;;;;;;;5026783;28;20272;-96
2021/01/17 15:30:08;;;;;;;19.20;10.60;;;;;;;;;;5021751;28;20208;-96
2021/01/17 15:32:34;;;;;;;19.33;10.70;;;;;;;;;;5024267;28;20291;-96
2021/01/17 15:35:00;;;;;;;32.65;18.92;;;;;;;;;;5020886;28;20230;-96
2021/01/17 15:37:26;;;;;;;24.80;14.35;;;;;;;;;;5021419;28;20205;-96
2021/01/17 15:39:52;;;;;;;31.38;16.85;;;;;;;;;;5021455;28;20212;-95
2021/01/17 15:42:19;;;;;;;41.45;20.20;;;;;;;;;;5018360;28;20239;-95
2021/01/17 15:44:45;;;;;;;41.92;21.60;;;;;;;;;;5022227;28;20208;-95
2021/01/17 15:47:11;;;;;;;49.15;25.55;;;;;;;;;;5024211;28;20217;-95
2021/01/17 15:49:37;;;;;;;59.22;30.30;;;;;;;;;;5021558;28;20236;-95
2021/01/17 15:52:04;;;;;;;47.83;28.52;;;;;;;;;;5020151;28;20205;-95
2021/01/17 15:54:30;;;;;;;59.20;32.53;;;;;;;;;;5020598;28;20227;-94
2021/01/17 15:56:56;;;;;;;69.43;39.83;;;;;;;;;;5024192;28;20215;-94
2021/01/17 15:59:24;;;;;;;62.60;32.35;;;;;;;;;;5027394;28;20282;-95
2021/01/17 16:01:55;;;;;;;53.35;28.90;;;;;;;;;;5024189;28;20236;-95
2021/01/17 16:04:21;;;;;;;48.20;26.15;;;;;;;;;;5028972;28;20209;-93
2021/01/17 16:06:47;;;;;;;54.55;28.70;;;;;;;;;;5024138;28;20244;-93
2021/01/17 16:09:13;;;;;;;60.88;31.63;;;;;;;;;;5027902;28;20204;-95
2021/01/17 16:11:39;;;;;;;55.83;30.42;;;;;;;;;;5031479;28;20216;-93
2021/01/17 16:14:05;;;;;;;52.30;27.85;;;;;;;;;;5032178;28;20181;-94
2021/01/17 16:16:34;;;;;;;46.47;27.67;;;;;;;;;;5031178;28;20205;-95
2021/01/17 16:19:00;;;;;;;50.28;27.55;;;;;;;;;;5021524;28;20209;-93
2021/01/17 16:21:27;;;;;;;45.30;26.00;;;;;;;;;;5021666;28;20213;-94
2021/01/17 16:23:54;;;;;;;38.75;21.95;;;;;;;;;;5020295;28;20208;-94
2021/01/17 16:26:20;;;;;;;47.95;25.40;;;;;;;;;;5023552;28;20251;-94
2021/01/17 16:28:46;;;;;;;46.13;25.38;;;;;;;;;;5018745;28;20211;-94
2021/01/17 16:31:12;;;;;;;53.10;29.20;;;;;;;;;;5019263;28;20227;-93
2021/01/17 16:33:39;;;;;;;49.70;27.45;;;;;;;;;;5031034;28;20201;-94
2021/01/17 16:36:06;;;;;;;41.55;22.73;;;;;;;;;;5021001;28;20239;-95
2021/01/17 16:38:32;;;;;;;43.50;22.60;;;;;;;;;;5023468;28;20224;-95